This is the latest recevied weather packets stored in our database for station/object VE2JJ-13. If no packets are shown the sender has not sent any weather packets the latest 10 day(s).
| Time | Temp. | Humidity | Pressure | Rain* | Wind** | Luminosity | Snow |
|---|---|---|---|---|---|---|---|
| 1778096762 | 8.89° C | 76% | 1001.6 hPa | 0 mm | - | - | - |
| 1778096132 | 8.89° C | 81% | 1001.5 hPa | 0 mm | - | - | - |
| 1778095502 | 8.89° C | 81% | 1001.5 hPa | 0 mm | - | - | - |
| 1778095171 | 8.89° C | 81% | 1001.5 hPa | 0 mm | - | - | - |
| 1778091033 | 8.33° C | 82% | 1001.8 hPa | 0 mm | - | - | - |
| 1778090733 | 7.78° C | 82% | 1001.8 hPa | 0 mm | - | - | - |
| 1778085423 | 7.78° C | 87% | 1002.7 hPa | 0.76 mm | - | - | - |
| 1778085092 | 7.78° C | 87% | 1002.7 hPa | 0.76 mm | - | - | - |
| 1778078191 | 7.22° C | 90% | 1003 hPa | 1.02 mm | - | - | - |
| 1778077590 | 7.22° C | 90% | 1003 hPa | 1.27 mm | - | - | - |
| 1778076961 | 7.22° C | 90% | 1003 hPa | 1.02 mm | - | - | - |
| 1778076664 | 7.22° C | 91% | 1003 hPa | 1.02 mm | - | - | - |
| 1778074770 | 7.22° C | 91% | 1002.9 hPa | 1.52 mm | - | - | - |
| 1778074473 | 7.22° C | 91% | 1002.9 hPa | 1.27 mm | - | - | - |
| 1778073510 | 7.22° C | 91% | 1003 hPa | 1.52 mm | - | - | - |
| 1778073211 | 7.22° C | 91% | 1002.9 hPa | 1.27 mm | - | - | - |
| 1778072879 | 7.22° C | 91% | 1002.9 hPa | 1.27 mm | - | - | - |
| 1778071950 | 7.22° C | 91% | 1003.1 hPa | 1.52 mm | - | - | - |
| 1778070362 | 7.22° C | 91% | 1002.9 hPa | 1.52 mm | - | - | - |
| 1778070031 | 7.22° C | 91% | 1002.9 hPa | 1.27 mm | - | - | - |
| 1778069733 | 7.22° C | 90% | 1002.9 hPa | 1.27 mm | - | - | - |
| 1778068770 | 7.78° C | 90% | 1003.1 hPa | 1.02 mm | - | - | - |
| 1778067512 | 7.78° C | 91% | 1003.4 hPa | 0.76 mm | - | - | - |
| 1778067212 | 7.78° C | 91% | 1003.4 hPa | 1.02 mm | - | - | - |
| 1778065322 | 7.78° C | 89% | 1002.7 hPa | 0.51 mm | - | - | - |
* Rain latest hour (hover to see other rain measurements)
** Current wind speed in m/s (hover to see current wind gust speed)